Detalii statie MOLDOVA TIGANASI [00001D08]

Toti senzorii

Date Temperatura solului [C]Precipitatii [mm]Voltaj baterie [mV]Leaf Wetness [Min]HC Air temperature [C]HC Relative humidity [%]Punctul de roua [C]
medieminmaxsumaultimatimpmedieminmaxmediemediemin
2017-12-10 21:00:00 1.4 1.3 1.5 0 7010 -2.65 -3.01 -2.1 92.96 -3.5 -4.1
2017-12-10 22:00:00 1.4 1.3 1.5 0 7010 -2.85 -3.41 -2.36 91.16 -4 -4.6
2017-12-10 23:00:00 1.3 1.2 1.4 0 6992 -3.31 -3.68 -2.85 87.38 -5 -5.5
2017-12-11 00:00:00 1.2 1.2 1.3 0 6992 -2.85 -3.49 -2.29 84.66 -4.9 -5.6
2017-12-11 01:00:00 1.2 1.1 1.3 0 6982 -2.67 -3.23 -1.49 84.41 -4.8 -5.1
2017-12-11 02:00:00 1.1 1 1.3 0 6992 -1.94 -2.72 -1.14 79.75 -4.9 -5.3
2017-12-11 03:00:00 1.1 1 1.2 0 7000 -1.57 -2.77 -0.77 82.05 -4.1 -4.8
2017-12-11 04:00:00 1.1 1.1 1.2 0 6992 0 -0.4 0.29 74.47 -4 -4.3
2017-12-11 05:00:00 1 1 1.1 0 7000 0.28 0 0.7 73.51 -3.9 -4.6
2017-12-11 06:00:00 1.1 1.1 1.2 0 7000 0.17 -0.11 0.4 77.66 -3.2 -3.5
2017-12-11 07:00:00 1.1 1 1.3 0 7000 0.55 0.42 0.92 74.64 -3.4 -3.8
2017-12-11 08:00:00 1.1 1.1 1.3 0 7000 1.29 0.64 1.96 69.84 -3.6 -4.3
2017-12-11 09:00:00 1.2 1 1.3 0 7158 1.8 1.2 2.39 69.55 -3.2 -3.9
2017-12-11 10:00:00 1.2 1.2 1.3 0 7186 2.19 1.82 2.52 70.13 -2.7 -3
2017-12-11 11:00:00 1.2 1.1 1.3 0 7226 2.27 2.03 2.48 71.75 -2.3 -3
2017-12-11 12:00:00 1.2 1.2 1.3 0 7352 2.27 1.96 2.68 78.55 -1.1 -2
2017-12-11 13:00:00 1.3 1.3 1.4 0.2 7352 1.76 1.5 2.31 88.13 0 -0.7
2017-12-11 14:00:00 1.4 1.3 1.5 0.2 7342 2.01 1.6 2.37 92.59 0.8 0.7
2017-12-11 15:00:00 1.4 1.3 1.5 0.2 7332 2.06 1.9 2.28 92.87 0.8 0.7
2017-12-11 16:00:00 1.4 1.4 1.5 0 7274 1.7 1.33 2.15 95.5 0.9 0.8
2017-12-11 17:00:00 1.4 1.4 1.5 0 7158 1.36 1.03 2.17 98.48 1 0.7
2017-12-11 18:00:00 1.4 1.4 1.5 0 7108 1.45 1.13 1.85 95.19 0.6 0.4
2017-12-11 19:00:00 1.4 1.4 1.5 0 7080 1.49 1.26 1.77 93.47 0.4 0.3
2017-12-11 20:00:00 1.4 1.4 1.5 0.2 7050 1.2 0.78 1.72 95.76 0.4 0.2
2017-12-11 21:00:00 1.4 1.3 1.5 0 7050 1.44 1.01 1.78 94.81 0.5 0.3
2017-12-11 22:00:00 1.4 1.4 1.5 0 7050 1.4 0.97 1.77 95.78 0.6 0.2
2017-12-11 23:00:00 1.4 1.3 1.5 0 7040 1.26 0.92 1.59 96.95 0.7 0.4
2017-12-12 00:00:00 1.3 1.3 1.5 0 7030 1.33 1.17 1.69 96.49 0.7 0.5
2017-12-12 01:00:00 1.3 1.3 1.5 0 7020 2.02 1.11 2.58 92.64 0.8 0.4
2017-12-12 02:00:00 1.4 1.3 1.5 0 7030 1.5 0.98 2.26 93.6 0.4 0.2
2017-12-12 03:00:00 1.4 1.3 1.5 0 7020 1.09 0.64 1.42 96.14 0.4 0
2017-12-12 04:00:00 1.3 1.3 1.5 0 7000 1.07 0.76 1.44 95.82 0.3 0.1
2017-12-12 05:00:00 1.4 1.3 1.5 0 7000 0.86 0.73 0.94 96.95 0.2 0.2
2017-12-12 06:00:00 1.3 1.3 1.5 0 6992 0.85 0.74 1.02 97.27 0.3 0.1
2017-12-12 07:00:00 1.3 1.3 1.4 0 7000 0.76 0.63 0.9 97.87 0.3 0.2
2017-12-12 08:00:00 1.3 1.2 1.4 0 6982 0.75 0.51 1.32 98.94 0.5 0.2
2017-12-12 09:00:00 1.3 1.2 1.4 0 7060 1.5 1.38 1.6 93.43 0.4 0.3
2017-12-12 10:00:00 1.3 1.3 1.5 0 7342 2.08 1.68 2.47 90.52 0.5 0.4
2017-12-12 11:00:00 1.4 1.3 1.6 0 7382 3.53 2.39 4.86 86.47 1.3 0.7
2017-12-12 12:00:00 1.6 1.5 1.7 0.2 7362 4.73 4.49 4.98 84.28 2.1 1.8
2017-12-12 13:00:00 1.8 1.7 1.9 0 7372 5.25 4.93 5.58 85.53 2.9 2.7
2017-12-12 14:00:00 2 1.8 2.2 0 7372 5.55 5.31 5.7 85.64 3.2 2.9
2017-12-12 15:00:00 2.2 2.1 2.4 0 7362 5.36 5.29 5.5 91.2 3.9 3.7
2017-12-12 16:00:00 2.4 2.2 2.5 0 7246 4.77 4.48 5.19 95.47 3.9 3.8
2017-12-12 17:00:00 2.4 2.2 2.6 0 7148 4.29 4 4.63 96.05 3.6 3.4
2017-12-12 18:00:00 2.3 2.2 2.5 0 7088 3.69 3.32 3.98 98.5 3.3 3.2
2017-12-12 19:00:00 2.1 2 2.3 0 7070 3.87 3.63 4.11 97.25 3.4 3.1